createdAt,value
2019-03-04T00:01:30.915Z,32.37
2019-03-04T00:03:56.805Z,31.80
2019-03-04T00:06:22.791Z,32.87
2019-03-04T00:08:48.614Z,33.57
2019-03-04T00:11:14.600Z,35.27
2019-03-04T00:13:40.569Z,35.70
2019-03-04T00:16:06.538Z,35.60
2019-03-04T00:18:32.416Z,34.80
2019-03-04T00:20:58.473Z,33.67
2019-03-04T00:23:24.613Z,34.93
2019-03-04T00:25:51.838Z,35.83
2019-03-04T00:28:18.027Z,36.27
2019-03-04T00:30:43.863Z,34.33
2019-03-04T00:33:09.719Z,35.37
2019-03-04T00:35:35.855Z,31.07
2019-03-04T00:38:01.974Z,30.33
2019-03-04T00:40:27.950Z,29.80
2019-03-04T00:42:53.989Z,28.40
2019-03-04T00:45:19.913Z,29.47
2019-03-04T00:47:45.963Z,26.87
2019-03-04T00:50:16.587Z,27.73
2019-03-04T00:52:42.512Z,27.17
2019-03-04T00:55:09.674Z,27.30
2019-03-04T00:57:35.617Z,29.20
2019-03-04T01:00:03.518Z,29.10
2019-03-04T01:02:29.475Z,30.40
2019-03-04T01:04:55.534Z,29.40
2019-03-04T01:07:21.518Z,29.47
2019-03-04T01:09:47.352Z,29.67
2019-03-04T01:12:13.182Z,30.17
2019-03-04T01:14:39.028Z,29.93
2019-03-04T01:17:04.980Z,30.83
2019-03-04T01:19:30.902Z,29.70
2019-03-04T01:21:56.710Z,30.07
2019-03-04T01:24:22.552Z,29.87
2019-03-04T01:26:48.585Z,29.70
2019-03-04T01:29:14.409Z,30.17
2019-03-04T01:31:40.246Z,29.13
2019-03-04T01:34:06.222Z,29.10
2019-03-04T01:36:32.192Z,29.13
2019-03-04T01:38:58.065Z,27.33
2019-03-04T01:41:27.259Z,27.43
2019-03-04T01:43:53.210Z,26.03
2019-03-04T01:46:19.064Z,27.00
2019-03-04T01:48:45.036Z,25.87
2019-03-04T01:51:11.003Z,25.13
2019-03-04T01:53:36.882Z,24.40
2019-03-04T01:56:02.931Z,24.23
2019-03-04T01:58:28.840Z,24.70
2019-03-04T02:00:54.701Z,24.80
2019-03-04T02:03:20.645Z,26.60
2019-03-04T02:05:46.512Z,25.00
2019-03-04T02:08:12.645Z,27.00
2019-03-04T02:10:38.594Z,26.33
2019-03-04T02:13:04.566Z,25.10
2019-03-04T02:15:30.541Z,26.90
2019-03-04T02:17:56.503Z,26.67
2019-03-04T02:20:22.474Z,23.70
2019-03-04T02:22:48.324Z,24.70
2019-03-04T02:25:17.310Z,24.00
2019-03-04T02:27:48.666Z,23.83
2019-03-04T02:30:23.297Z,23.33
2019-03-04T02:32:49.323Z,22.83
2019-03-04T02:35:15.670Z,21.50
2019-03-04T02:37:41.670Z,20.97
2019-03-04T02:40:07.747Z,20.63
2019-03-04T02:42:33.585Z,20.33
2019-03-04T02:44:59.567Z,20.30
2019-03-04T02:47:25.407Z,19.50
2019-03-04T02:49:51.270Z,20.03
2019-03-04T02:52:17.157Z,19.73
2019-03-04T02:54:43.094Z,19.53
2019-03-04T02:57:08.978Z,20.00
2019-03-04T02:59:34.835Z,19.37
2019-03-04T03:02:00.758Z,20.00
2019-03-04T03:04:26.767Z,19.47
2019-03-04T03:06:52.719Z,19.30
2019-03-04T03:09:18.554Z,19.13
2019-03-04T03:11:44.666Z,17.87
2019-03-04T03:14:10.618Z,17.70
2019-03-04T03:16:36.549Z,17.53
2019-03-04T03:19:02.522Z,17.50
2019-03-04T03:21:28.477Z,18.03
2019-03-04T03:23:54.311Z,18.07
2019-03-04T03:26:20.273Z,17.30
2019-03-04T03:28:46.210Z,17.93
2019-03-04T03:31:12.082Z,18.23
2019-03-04T03:33:38.022Z,19.33
2019-03-04T03:36:04.016Z,19.00
2019-03-04T03:38:29.963Z,19.47
2019-03-04T03:40:55.789Z,19.27
2019-03-04T03:43:22.005Z,18.80
2019-03-04T03:45:48.017Z,19.53
2019-03-04T03:48:13.927Z,18.07
2019-03-04T03:50:39.839Z,18.53
2019-03-04T03:53:05.809Z,17.73
2019-03-04T03:55:31.750Z,17.03
2019-03-04T03:57:57.699Z,18.40
2019-03-04T04:00:24.450Z,17.77
2019-03-04T04:02:50.545Z,18.03
2019-03-04T04:05:16.516Z,17.07
2019-03-04T04:07:42.596Z,17.87
2019-03-04T04:10:14.557Z,17.70
2019-03-04T04:12:40.688Z,17.70
2019-03-04T04:15:09.098Z,17.13
2019-03-04T04:17:34.997Z,17.77
2019-03-04T04:20:00.954Z,17.07
2019-03-04T04:22:27.015Z,16.93
2019-03-04T04:24:53.107Z,17.00
2019-03-04T04:27:18.932Z,16.40
2019-03-04T04:29:44.869Z,16.13
2019-03-04T04:32:10.773Z,16.47
2019-03-04T04:34:36.737Z,16.13
2019-03-04T04:37:02.756Z,16.53
2019-03-04T04:39:28.648Z,16.63
2019-03-04T04:41:54.497Z,16.20
2019-03-04T04:44:20.518Z,17.33
2019-03-04T04:46:48.478Z,17.20
2019-03-04T04:49:14.353Z,18.33
2019-03-04T04:51:40.351Z,16.63
2019-03-04T04:54:06.204Z,17.07
2019-03-04T04:56:32.127Z,15.83
2019-03-04T04:58:58.002Z,15.90
2019-03-04T05:01:23.855Z,17.07
2019-03-04T05:03:49.692Z,15.53
2019-03-04T05:06:15.654Z,16.37
2019-03-04T05:08:41.618Z,16.77
2019-03-04T05:11:07.579Z,15.77
2019-03-04T05:13:33.515Z,16.77
2019-03-04T05:15:59.528Z,16.67
2019-03-04T05:18:25.516Z,17.33
2019-03-04T05:20:51.340Z,15.73
2019-03-04T05:23:17.199Z,17.03
2019-03-04T05:25:43.150Z,16.30
2019-03-04T05:28:08.982Z,15.83
2019-03-04T05:30:34.905Z,16.80
2019-03-04T05:33:00.978Z,16.40
2019-03-04T05:35:26.830Z,16.93
2019-03-04T05:37:52.765Z,16.27
2019-03-04T05:40:19.991Z,15.77
2019-03-04T05:42:46.050Z,15.50
2019-03-04T05:45:13.728Z,15.37
2019-03-04T05:47:39.919Z,15.47
2019-03-04T05:50:09.183Z,15.07
2019-03-04T05:52:35.040Z,15.30
2019-03-04T05:55:01.064Z,15.00
2019-03-04T05:57:26.895Z,15.13
2019-03-04T05:59:52.897Z,15.07
2019-03-04T06:02:18.800Z,14.67
2019-03-04T06:04:44.721Z,14.90
2019-03-04T06:07:12.491Z,14.90
2019-03-04T06:09:38.696Z,14.97
2019-03-04T06:12:04.740Z,14.20
2019-03-04T06:14:30.815Z,14.67
2019-03-04T06:16:56.652Z,14.60
2019-03-04T06:19:22.635Z,14.70
2019-03-04T06:21:48.716Z,15.83
2019-03-04T06:24:14.625Z,15.43
2019-03-04T06:26:40.457Z,14.90
2019-03-04T06:29:06.951Z,15.30
2019-03-04T06:31:32.870Z,15.47
2019-03-04T06:33:58.689Z,15.03
2019-03-04T06:36:24.692Z,15.23
2019-03-04T06:38:50.620Z,14.97
2019-03-04T06:41:16.550Z,15.30
2019-03-04T06:43:44.095Z,14.83
2019-03-04T06:46:10.132Z,14.20
2019-03-04T06:48:36.042Z,15.13
2019-03-04T06:51:05.711Z,15.33
2019-03-04T06:53:52.969Z,14.43
2019-03-04T06:56:22.655Z,14.97
2019-03-04T06:59:16.823Z,14.50
2019-03-04T07:01:49.333Z,14.70
2019-03-04T07:04:19.032Z,14.80
2019-03-04T07:06:45.003Z,14.23
2019-03-04T07:09:11.060Z,14.73
2019-03-04T07:11:37.154Z,14.43
2019-03-04T07:14:03.572Z,15.73
2019-03-04T07:16:29.505Z,15.13
2019-03-04T07:18:55.477Z,14.70
2019-03-04T07:21:21.549Z,15.33
2019-03-04T07:23:47.459Z,14.60
2019-03-04T07:26:13.399Z,14.47
2019-03-04T07:28:39.322Z,14.10
2019-03-04T07:31:05.402Z,14.93
2019-03-04T07:33:31.364Z,13.73
2019-03-04T07:35:57.321Z,14.03
2019-03-04T07:38:42.061Z,13.27
2019-03-04T07:41:07.893Z,13.13
2019-03-04T07:43:33.783Z,13.13
2019-03-04T07:45:59.838Z,13.60
2019-03-04T07:48:25.809Z,12.50
2019-03-04T07:50:51.858Z,12.43
2019-03-04T07:53:19.173Z,12.57
2019-03-04T07:55:45.367Z,13.00
2019-03-04T07:58:11.236Z,13.70
2019-03-04T08:00:37.047Z,14.20
2019-03-04T08:03:03.160Z,14.27
2019-03-04T08:05:29.098Z,21.07
2019-03-04T08:08:06.466Z,24.37
2019-03-04T08:10:41.945Z,26.77
2019-03-04T08:13:32.432Z,29.40
2019-03-04T08:15:58.511Z,30.70
2019-03-04T08:18:24.313Z,31.47
2019-03-04T08:20:50.295Z,34.60
2019-03-04T08:23:16.242Z,34.97
2019-03-04T08:25:42.087Z,34.33
2019-03-04T08:28:09.334Z,34.30
2019-03-04T08:30:35.434Z,35.10
2019-03-04T08:33:01.364Z,35.37
2019-03-04T08:35:27.474Z,37.23
2019-03-04T08:37:53.530Z,33.13
2019-03-04T08:40:19.572Z,24.20
2019-03-04T08:42:45.688Z,21.80
2019-03-04T08:45:17.122Z,20.70
2019-03-04T08:47:42.998Z,20.07
2019-03-04T08:50:11.296Z,18.80
2019-03-04T08:52:37.505Z,19.27
2019-03-04T08:55:05.986Z,17.40
2019-03-04T08:57:32.097Z,18.40
2019-03-04T08:59:58.035Z,19.43
2019-03-04T09:02:24.095Z,20.33
2019-03-04T09:04:49.985Z,20.97
2019-03-04T09:07:15.816Z,20.33
2019-03-04T09:09:41.770Z,19.97
2019-03-04T09:12:07.816Z,21.90
2019-03-04T09:14:33.788Z,21.70
2019-03-04T09:16:59.876Z,22.27
2019-03-04T09:19:25.724Z,22.67
2019-03-04T09:21:51.565Z,21.80
2019-03-04T09:24:17.657Z,20.90
2019-03-04T09:26:43.628Z,21.37
2019-03-04T09:29:09.569Z,26.30
2019-03-04T09:31:35.513Z,29.97
2019-03-04T09:34:01.412Z,35.57
2019-03-04T09:36:27.349Z,36.93
2019-03-04T09:38:53.178Z,37.30
2019-03-04T09:41:19.189Z,38.73
2019-03-04T09:43:45.098Z,36.07
2019-03-04T09:46:11.043Z,36.33
2019-03-04T09:48:37.089Z,38.80
2019-03-04T09:51:03.113Z,40.07
2019-03-04T09:53:38.877Z,37.33
2019-03-04T09:55:56.843Z,35.50
2019-03-04T09:58:22.716Z,35.77
2019-03-04T10:00:58.451Z,35.27
2019-03-04T10:03:40.351Z,34.17
2019-03-04T10:06:18.657Z,35.77
2019-03-04T10:09:05.016Z,33.43
2019-03-04T10:11:47.059Z,33.00
2019-03-04T10:14:25.860Z,31.43
2019-03-04T10:16:55.579Z,30.20
2019-03-04T10:19:37.257Z,31.27
2019-03-04T10:22:18.931Z,30.80
2019-03-04T10:24:54.334Z,31.93
2019-03-04T10:27:27.039Z,35.03
2019-03-04T10:30:05.703Z,49.47
2019-03-04T10:32:56.277Z,61.50
2019-03-04T10:35:51.827Z,65.77
2019-03-04T10:38:22.777Z,69.87
2019-03-04T10:41:20.247Z,72.73
2019-03-04T10:43:49.934Z,70.47
2019-03-04T10:46:36.349Z,70.33
2019-03-04T10:49:02.513Z,71.63
2019-03-04T10:51:31.987Z,73.10
2019-03-04T10:53:58.027Z,70.90
2019-03-04T10:56:24.070Z,74.47
2019-03-04T10:58:49.918Z,73.87
2019-03-04T11:01:15.760Z,73.33
2019-03-04T11:03:41.820Z,71.83
2019-03-04T11:06:07.915Z,72.53
2019-03-04T11:08:33.762Z,69.93
2019-03-04T11:10:59.944Z,71.27
2019-03-04T11:13:25.895Z,69.87
2019-03-04T11:15:51.728Z,70.77
2019-03-04T11:18:17.622Z,71.53
2019-03-04T11:20:43.569Z,71.50
2019-03-04T11:23:09.705Z,72.93
2019-03-04T11:25:36.042Z,72.13
2019-03-04T11:28:01.966Z,70.60
2019-03-04T11:30:29.837Z,72.83
2019-03-04T11:32:55.946Z,72.67
2019-03-04T11:35:21.785Z,72.53
2019-03-04T11:37:47.824Z,71.00
2019-03-04T11:40:22.084Z,73.63
2019-03-04T11:42:47.912Z,75.80
2019-03-04T11:45:14.753Z,75.70
2019-03-04T11:47:40.709Z,77.87
2019-03-04T11:50:10.144Z,76.17
2019-03-04T11:52:36.028Z,75.97
2019-03-04T11:55:02.119Z,77.20
2019-03-04T11:57:28.127Z,74.53
2019-03-04T11:59:53.970Z,76.43
2019-03-04T12:02:20.194Z,77.57
2019-03-04T12:04:46.057Z,78.07
2019-03-04T12:07:12.034Z,81.67
2019-03-04T12:09:37.944Z,83.33
2019-03-04T12:12:03.981Z,85.70
2019-03-04T12:14:30.030Z,85.60
2019-03-04T12:16:56.066Z,88.70
2019-03-04T12:19:22.004Z,89.03
2019-03-04T12:21:48.055Z,89.23
2019-03-04T12:24:14.041Z,87.73
2019-03-04T12:26:41.868Z,86.03
2019-03-04T12:29:07.726Z,86.90
2019-03-04T12:31:35.584Z,87.00
2019-03-04T12:34:01.526Z,86.53
2019-03-04T12:36:27.418Z,85.30
2019-03-04T12:38:53.276Z,86.53
2019-03-04T12:41:19.237Z,86.60
2019-03-04T12:43:45.208Z,85.13
2019-03-04T12:46:11.144Z,85.20
2019-03-04T12:48:37.133Z,85.33
2019-03-04T12:51:03.194Z,85.53
2019-03-04T12:53:37.008Z,85.57
2019-03-04T12:55:57.290Z,84.37
2019-03-04T12:58:23.341Z,84.87
2019-03-04T13:00:49.431Z,84.37
2019-03-04T13:03:20.021Z,85.63
2019-03-04T13:05:46.053Z,83.83
2019-03-04T13:08:12.015Z,85.43
2019-03-04T13:10:38.103Z,83.10
2019-03-04T13:13:04.165Z,86.67
2019-03-04T13:15:36.932Z,83.37
2019-03-04T13:18:11.099Z,86.17
2019-03-04T13:20:37.321Z,84.97
2019-03-04T13:23:04.053Z,83.33
2019-03-04T13:25:29.943Z,85.03
2019-03-04T13:27:55.903Z,85.10
2019-03-04T13:30:23.558Z,86.07
2019-03-04T13:32:49.987Z,84.83
2019-03-04T13:35:24.781Z,89.43
2019-03-04T13:37:49.923Z,83.90
2019-03-04T13:40:15.992Z,80.60
2019-03-04T13:42:41.935Z,83.73
2019-03-04T13:45:13.719Z,81.83
2019-03-04T13:47:39.873Z,77.83
2019-03-04T13:50:14.717Z,78.23
2019-03-04T13:52:40.785Z,78.37
2019-03-04T13:55:07.169Z,77.27
2019-03-04T13:57:36.735Z,77.20
2019-03-04T14:00:06.401Z,78.63
2019-03-04T14:02:32.376Z,77.37
2019-03-04T14:04:58.312Z,74.97
2019-03-04T14:07:24.229Z,76.20
2019-03-04T14:09:50.157Z,76.17
2019-03-04T14:12:16.267Z,78.37
2019-03-04T14:14:42.181Z,74.03
2019-03-04T14:17:08.239Z,77.97
2019-03-04T14:19:34.136Z,75.93
2019-03-04T14:22:00.395Z,74.80
2019-03-04T14:24:26.444Z,77.00
2019-03-04T14:26:52.458Z,74.60
2019-03-04T14:29:18.903Z,74.77
2019-03-04T14:31:44.979Z,74.13
2019-03-04T14:34:11.513Z,73.37
2019-03-04T14:36:37.495Z,72.83
2019-03-04T14:39:06.851Z,72.77
2019-03-04T14:41:32.995Z,70.60
2019-03-04T14:43:58.965Z,72.13
2019-03-04T14:46:25.028Z,71.13
2019-03-04T14:48:51.192Z,69.30
2019-03-04T14:51:18.945Z,76.47
2019-03-04T14:53:44.997Z,81.47
2019-03-04T14:56:11.226Z,85.87
2019-03-04T14:58:37.115Z,87.17
2019-03-04T15:01:03.446Z,85.30
2019-03-04T15:03:29.371Z,86.07
2019-03-04T15:05:55.309Z,87.00
2019-03-04T15:08:21.267Z,82.07
2019-03-04T15:10:47.375Z,87.03
2019-03-04T15:13:13.263Z,84.20
2019-03-04T15:15:39.201Z,83.87
2019-03-04T15:18:05.321Z,80.47
2019-03-04T15:20:33.501Z,82.73
2019-03-04T15:22:59.835Z,81.17
2019-03-04T15:25:31.289Z,82.43
2019-03-04T15:28:13.010Z,82.00
2019-03-04T15:30:40.726Z,77.50
2019-03-04T15:33:06.801Z,75.00
2019-03-04T15:35:32.680Z,71.13
2019-03-04T15:37:58.577Z,73.10
2019-03-04T15:40:26.683Z,75.40
2019-03-04T15:42:52.179Z,72.67
2019-03-04T15:45:18.280Z,72.93
2019-03-04T15:47:44.216Z,71.97
2019-03-04T15:50:10.945Z,75.23
2019-03-04T15:52:37.492Z,68.97
2019-03-04T15:55:06.362Z,69.77
2019-03-04T15:57:32.323Z,51.00
2019-03-04T15:59:58.377Z,57.50
2019-03-04T16:02:24.611Z,84.80
2019-03-04T16:04:50.624Z,84.43
2019-03-04T16:07:16.736Z,82.40
2019-03-04T16:09:42.821Z,72.20
2019-03-04T16:12:10.767Z,63.63
2019-03-04T16:14:36.642Z,54.00
2019-03-04T16:17:02.706Z,45.37
2019-03-04T16:19:28.628Z,56.50
2019-03-04T16:21:54.713Z,46.50
2019-03-04T16:24:20.784Z,47.47
2019-03-04T16:26:46.834Z,45.67
2019-03-04T16:29:12.807Z,44.50
2019-03-04T16:31:38.776Z,47.47
2019-03-04T16:34:04.854Z,50.30
2019-03-04T16:36:30.937Z,48.87
2019-03-04T16:38:56.759Z,53.20
2019-03-04T16:41:22.754Z,53.17
2019-03-04T16:43:48.939Z,48.90
2019-03-04T16:46:15.616Z,50.13
2019-03-04T16:48:41.698Z,55.50
2019-03-04T16:51:07.580Z,56.50
2019-03-04T16:53:33.901Z,56.33
2019-03-04T16:55:59.869Z,57.87
2019-03-04T16:58:26.130Z,52.10
2019-03-04T17:00:52.179Z,54.60
2019-03-04T17:03:18.228Z,51.33
2019-03-04T17:05:44.305Z,54.77
2019-03-04T17:08:10.455Z,56.13
2019-03-04T17:10:36.626Z,55.00
2019-03-04T17:13:02.898Z,57.60
2019-03-04T17:15:28.921Z,58.43
2019-03-04T17:17:54.778Z,55.87
2019-03-04T17:20:20.864Z,56.40
2019-03-04T17:22:47.288Z,56.30
2019-03-04T17:25:15.455Z,55.10
2019-03-04T17:27:41.992Z,53.33
2019-03-04T17:30:10.751Z,58.10
2019-03-04T17:32:37.039Z,54.67
2019-03-04T17:35:05.188Z,57.27
2019-03-04T17:37:31.265Z,58.47
2019-03-04T17:39:57.322Z,59.63
2019-03-04T17:42:23.163Z,57.43
2019-03-04T17:44:49.159Z,60.53
2019-03-04T17:47:15.129Z,62.07
2019-03-04T17:49:41.250Z,59.13
2019-03-04T17:52:07.370Z,54.23
2019-03-04T17:54:33.215Z,57.00
2019-03-04T17:56:59.116Z,62.73
2019-03-04T17:59:28.864Z,74.40
2019-03-04T18:01:55.821Z,60.07
2019-03-04T18:04:21.754Z,62.70
2019-03-04T18:06:48.297Z,61.33
2019-03-04T18:09:14.124Z,62.93
2019-03-04T18:11:40.129Z,65.47
2019-03-04T18:14:06.057Z,74.27
2019-03-04T18:16:32.616Z,68.97
2019-03-04T18:18:58.702Z,64.80
2019-03-04T18:21:24.834Z,67.73
2019-03-04T18:23:50.719Z,69.57
2019-03-04T18:26:20.309Z,72.33
2019-03-04T18:29:04.182Z,74.97
2019-03-04T18:31:48.870Z,75.07
2019-03-04T18:34:45.727Z,78.97
2019-03-04T18:37:30.740Z,79.40
2019-03-04T18:40:12.384Z,87.10
2019-03-04T18:42:42.024Z,88.77
2019-03-04T18:45:29.987Z,89.57
2019-03-04T18:48:14.873Z,93.83
2019-03-04T18:50:41.134Z,93.97
2019-03-04T18:53:07.411Z,82.97
2019-03-04T18:55:33.330Z,90.40
2019-03-04T18:57:59.288Z,90.57
2019-03-04T19:00:26.029Z,93.07
2019-03-04T19:02:51.968Z,96.70
2019-03-04T19:05:18.009Z,102.07
2019-03-04T19:07:44.164Z,109.23
2019-03-04T19:10:11.153Z,117.17
2019-03-04T19:12:37.012Z,116.27
2019-03-04T19:15:06.479Z,107.63
2019-03-04T19:17:33.791Z,104.73
2019-03-04T19:20:00.312Z,107.60
2019-03-04T19:22:26.348Z,110.97
2019-03-04T19:24:52.166Z,109.90
2019-03-04T19:27:18.058Z,106.03
2019-03-04T19:29:44.011Z,101.97
2019-03-04T19:32:09.847Z,119.08
2019-03-04T19:34:35.886Z,106.53
2019-03-04T19:37:01.978Z,101.03
2019-03-04T19:42:33.518Z,96.50
2019-03-04T19:44:59.442Z,83.37
2019-03-04T19:47:25.382Z,80.87
2019-03-04T19:49:51.299Z,77.33
2019-03-04T19:52:17.465Z,75.30
2019-03-04T19:54:43.444Z,79.42
2019-03-04T19:57:09.640Z,73.50
2019-03-04T19:59:35.741Z,74.63
2019-03-04T20:02:02.247Z,76.80
2019-03-04T20:04:28.413Z,73.63
2019-03-04T20:06:54.338Z,73.27
2019-03-04T20:09:21.918Z,74.70
2019-03-04T20:11:47.929Z,76.03
2019-03-04T20:14:13.877Z,72.87
2019-03-04T20:16:39.852Z,74.47
2019-03-04T20:19:05.942Z,71.43
2019-03-04T20:21:31.974Z,77.43
2019-03-04T20:23:57.831Z,77.50
2019-03-04T20:26:23.895Z,73.70
2019-03-04T20:28:49.886Z,74.23
2019-03-04T20:31:15.982Z,71.93
2019-03-04T20:33:41.959Z,73.73
2019-03-04T20:36:07.954Z,71.23
2019-03-04T20:38:37.388Z,71.70
2019-03-04T20:41:03.445Z,71.50
2019-03-04T20:43:29.515Z,73.60
2019-03-04T20:45:55.343Z,71.43
2019-03-04T20:48:21.328Z,69.00
2019-03-04T20:50:47.188Z,68.57
2019-03-04T20:53:13.243Z,67.77
2019-03-04T20:55:39.242Z,66.60
2019-03-04T20:58:05.168Z,68.67
2019-03-04T21:00:35.439Z,67.90
2019-03-04T21:03:07.351Z,67.83
2019-03-04T21:05:35.532Z,67.07
2019-03-04T21:08:02.016Z,58.27
2019-03-04T21:10:27.960Z,60.53
2019-03-04T21:12:56.011Z,57.93
2019-03-04T21:15:22.396Z,55.10
2019-03-04T21:17:48.448Z,52.30
2019-03-04T21:20:15.654Z,47.77
2019-03-04T21:22:44.285Z,49.07
2019-03-04T21:25:43.158Z,48.47
2019-03-04T21:28:28.147Z,47.13
2019-03-04T21:31:16.450Z,46.47
2019-03-04T21:34:06.048Z,42.87
2019-03-04T21:36:41.918Z,48.87
2019-03-04T21:39:10.171Z,45.80
2019-03-04T21:41:51.816Z,47.23
2019-03-04T21:44:44.572Z,50.13
2019-03-04T21:47:26.719Z,50.83
2019-03-04T21:49:52.784Z,53.40
2019-03-04T21:52:31.378Z,52.73
2019-03-04T21:54:57.319Z,56.17
2019-03-04T21:57:32.915Z,55.27
2019-03-04T21:59:59.148Z,56.17
2019-03-04T22:02:36.386Z,61.57
2019-03-04T22:05:11.701Z,60.03
2019-03-04T22:07:37.700Z,58.70
2019-03-04T22:10:07.260Z,59.57
2019-03-04T22:12:33.211Z,55.03
2019-03-04T22:14:59.436Z,54.53
2019-03-04T22:17:25.464Z,54.20
2019-03-04T22:19:51.364Z,56.10
2019-03-04T22:22:17.591Z,56.20
2019-03-04T22:24:43.525Z,53.73
2019-03-04T22:27:09.537Z,50.83
2019-03-04T22:29:35.436Z,53.50
2019-03-04T22:32:01.659Z,52.10
2019-03-04T22:34:27.529Z,47.63
2019-03-04T22:36:53.585Z,48.53
2019-03-04T22:39:19.534Z,45.93
2019-03-04T22:41:45.381Z,44.87
2019-03-04T22:44:11.342Z,45.20
2019-03-04T22:46:37.804Z,46.57
2019-03-04T22:49:03.783Z,46.67
2019-03-04T22:51:29.808Z,49.57
2019-03-04T22:53:56.037Z,46.43
2019-03-04T22:56:22.011Z,47.83
2019-03-04T22:58:48.239Z,48.43
2019-03-04T23:01:19.801Z,43.40
2019-03-04T23:03:45.872Z,41.90
2019-03-04T23:06:21.959Z,41.53
2019-03-04T23:08:47.896Z,42.07
2019-03-04T23:11:13.844Z,38.90
2019-03-04T23:13:52.502Z,40.33
2019-03-04T23:16:24.627Z,37.53
2019-03-04T23:18:50.611Z,35.33
2019-03-04T23:21:16.548Z,34.47
2019-03-04T23:23:42.464Z,32.57
2019-03-04T23:26:08.551Z,31.27
2019-03-04T23:28:34.487Z,30.60
2019-03-04T23:31:01.915Z,29.67
2019-03-04T23:33:27.869Z,30.27
2019-03-04T23:35:53.816Z,28.97
2019-03-04T23:38:19.802Z,29.93
2019-03-04T23:40:45.647Z,30.70
2019-03-04T23:43:11.710Z,30.57
2019-03-04T23:45:37.616Z,31.00
2019-03-04T23:48:03.666Z,30.47
2019-03-04T23:50:29.603Z,28.40
2019-03-04T23:52:55.639Z,30.80
2019-03-04T23:55:21.620Z,30.37
2019-03-04T23:57:47.549Z,27.47
